Time;durP1;ratioP1;P1;durP2;ratioP2;P2;SDS_P1;SDS_P2;PMS_P1;PMS_P2;Temp;Humidity;BMP_temperature;BMP_pressure;BME280_temperature;BME280_humidity;BME280_pressure;Samples;Min_cycle;Max_cycle;Signal;HPM_P1;HPM_P2
2022/03/18 00:01:09;;;;;;;;;;;;;;;18.15;42.52;103885.72;5126600;28;19907;-59
2022/03/18 00:03:34;;;;;;;;;;;;;;;18.14;42.66;103885.81;5126354;28;20214;-59
2022/03/18 00:05:59;;;;;;;;;;;;;;;18.14;42.49;103888.50;5125180;28;19907;-59
2022/03/18 00:08:25;;;;;;;;;;;;;;;18.13;42.67;103887.59;5125127;28;19972;-59
2022/03/18 00:10:50;;;;;;;;;;;;;;;18.12;42.66;103882.31;5125551;28;19908;-59
2022/03/18 00:13:15;;;;;;;;;;;;;;;18.11;42.55;103885.97;5126390;28;19918;-59
2022/03/18 00:15:41;;;;;;;;;;;;;;;18.10;42.57;103890.50;5125219;28;19908;-59
2022/03/18 00:18:06;;;;;;;;;;;;;;;18.09;42.53;103887.88;5126390;28;19908;-59
2022/03/18 00:20:31;;;;;;;;;;;;;;;18.08;42.49;103894.22;5126514;28;19908;-59
2022/03/18 00:22:56;;;;;;;;;;;;;;;18.07;42.67;103889.81;5124907;28;19916;-59
2022/03/18 00:25:21;;;;;;;;;;;;;;;18.07;42.56;103897.88;5125546;28;19937;-59
2022/03/18 00:27:47;;;;;;;;;;;;;;;18.04;42.60;103898.06;5125763;28;19908;-59
2022/03/18 00:30:13;;;;;;;;;;;;;;;18.03;42.55;103902.59;5126035;28;19946;-58
2022/03/18 00:32:38;;;;;;;;;;;;;;;18.03;42.52;103899.03;5126282;28;19971;-59
2022/03/18 00:35:04;;;;;;;;;;;;;;;18.02;42.44;103895.47;5126087;28;19960;-59
2022/03/18 00:37:29;;;;;;;;;;;;;;;18.02;42.45;103902.69;5126068;28;20284;-59
2022/03/18 00:39:54;;;;;;;;;;;;;;;18.00;42.42;103900.06;5125253;28;19907;-59
2022/03/18 00:42:19;;;;;;;;;;;;;;;18.00;42.45;103905.44;5124062;28;19953;-59
2022/03/18 00:44:45;;;;;;;;;;;;;;;17.99;42.42;103914.50;5125861;28;20332;-59
2022/03/18 00:52:38;;;;;;;;;;;;;;;17.96;42.36;103920.91;5125628;28;19950;-59
2022/03/18 00:55:03;;;;;;;;;;;;;;;17.96;42.30;103920.03;5125008;28;19916;-59
2022/03/18 00:57:29;;;;;;;;;;;;;;;17.94;42.29;103928.22;5125227;28;19907;-59
2022/03/18 00:59:54;;;;;;;;;;;;;;;17.94;42.16;103935.44;5125884;28;19914;-59
2022/03/18 01:02:19;;;;;;;;;;;;;;;17.94;42.14;103927.34;5125283;28;19914;-59
2022/03/18 01:04:44;;;;;;;;;;;;;;;17.93;42.20;103934.56;5125304;28;19919;-59
2022/03/18 01:07:09;;;;;;;;;;;;;;;17.92;42.19;103927.41;5125551;28;19934;-59
2022/03/18 01:09:35;;;;;;;;;;;;;;;17.91;42.25;103928.38;5124751;28;20356;-59
2022/03/18 01:12:00;;;;;;;;;;;;;;;17.90;42.11;103936.56;5124702;28;19929;-59
2022/03/18 01:14:26;;;;;;;;;;;;;;;17.89;42.06;103935.69;5124050;28;19914;-59
2022/03/18 01:16:51;;;;;;;;;;;;;;;17.89;42.26;103940.22;5125199;28;19908;-59
2022/03/18 01:19:18;;;;;;;;;;;;;;;17.88;42.20;103942.03;5123798;28;20019;-59
2022/03/18 01:21:43;;;;;;;;;;;;;;;17.86;42.01;103933.19;5125115;28;19920;-59
2022/03/18 01:24:08;;;;;;;;;;;;;;;17.86;42.01;103929.63;5124083;28;19985;-59
2022/03/18 01:26:33;;;;;;;;;;;;;;;17.85;42.15;103933.28;5124585;28;19907;-59
2022/03/18 01:28:58;;;;;;;;;;;;;;;17.84;42.03;103935.09;5125138;28;19907;-59
2022/03/18 01:31:24;;;;;;;;;;;;;;;17.84;42.18;103928.81;5124938;28;19960;-59
2022/03/18 01:33:49;;;;;;;;;;;;;;;17.83;42.09;103929.78;5124898;28;19907;-59
2022/03/18 01:36:15;;;;;;;;;;;;;;;17.83;41.97;103921.72;5124751;28;19918;-59
2022/03/18 01:38:40;;;;;;;;;;;;;;;17.81;42.06;103916.44;5124697;28;19908;-59
2022/03/18 01:41:05;;;;;;;;;;;;;;;17.81;41.97;103924.50;5123976;28;19922;-59
2022/03/18 01:43:42;;;;;;;;;;;;;;;17.80;42.04;103927.25;5125104;28;20381;-59
2022/03/18 01:46:07;;;;;;;;;;;;;;;17.79;41.99;103923.69;5123569;28;19962;-59
2022/03/18 01:48:33;;;;;;;;;;;;;;;17.78;41.91;103927.34;5124769;28;19912;-59
2022/03/18 01:50:58;;;;;;;;;;;;;;;17.78;41.98;103927.34;5124503;28;19908;-59
2022/03/18 01:53:23;;;;;;;;;;;;;;;17.77;41.94;103935.53;5122925;28;19911;-59
2022/03/18 01:55:48;;;;;;;;;;;;;;;17.76;41.82;103945.44;5122550;28;19908;-58
2022/03/18 01:58:13;;;;;;;;;;;;;;;17.75;41.83;103935.59;5124651;28;19915;-59
2022/03/18 02:00:39;;;;;;;;;;;;;;;17.74;41.87;103936.56;5124421;28;19908;-59
2022/03/18 02:03:04;;;;;;;;;;;;;;;17.74;41.82;103939.25;5124777;28;19930;-58
2022/03/18 02:05:29;;;;;;;;;;;;;;;17.72;41.95;103947.41;5124640;28;20530;-59
2022/03/18 02:07:54;;;;;;;;;;;;;;;17.71;41.86;103953.75;5124510;28;20391;-59
2022/03/18 02:10:19;;;;;;;;;;;;;;;17.70;41.95;103951.97;5122440;28;19919;-59
2022/03/18 02:12:46;;;;;;;;;;;;;;;17.70;41.92;103956.50;5123006;28;19914;-59
2022/03/18 02:15:12;;;;;;;;;;;;;;;17.69;41.74;103954.75;5124350;28;19908;-58
2022/03/18 02:17:37;;;;;;;;;;;;;;;17.68;41.64;103963.81;5124481;28;19914;-59
2022/03/18 02:20:02;;;;;;;;;;;;;;;17.67;41.59;103962.03;5124725;28;19908;-59
2022/03/18 02:22:32;;;;;;;;;;;;;;;17.66;41.85;103953.09;5124054;28;19916;-59
2022/03/18 02:24:57;;;;;;;;;;;;;;;17.65;41.73;103963.97;5122545;28;19976;-59
2022/03/18 02:27:23;;;;;;;;;;;;;;;17.65;41.65;103964.81;5123912;28;20384;-59
2022/03/18 02:29:48;;;;;;;;;;;;;;;17.65;41.82;103961.28;5124452;28;20352;-59
2022/03/18 02:32:13;;;;;;;;;;;;;;;17.64;41.76;103962.25;5124271;28;19911;-59
2022/03/18 02:34:39;;;;;;;;;;;;;;;17.63;41.76;103961.38;5123865;28;20384;-59
2022/03/18 02:37:05;;;;;;;;;;;;;;;17.61;41.58;103963.25;5124349;28;19907;-59
2022/03/18 02:39:30;;;;;;;;;;;;;;;17.61;41.58;103965.94;5123632;28;19914;-59
2022/03/18 02:41:56;;;;;;;;;;;;;;;17.61;41.65;103970.47;5123877;28;19939;-59
2022/03/18 02:44:21;;;;;;;;;;;;;;;17.59;41.66;103956.25;5124245;28;20283;-59
2022/03/18 02:46:46;;;;;;;;;;;;;;;17.58;41.46;103954.50;5126857;28;20267;-59
2022/03/18 02:49:11;;;;;;;;;;;;;;;17.58;41.57;103951.81;5128127;28;19974;-58
2022/03/18 02:51:37;;;;;;;;;;;;;;;17.56;41.57;103937.59;5127698;28;19907;-58
2022/03/18 02:54:03;;;;;;;;;;;;;;;17.56;41.52;103948.34;5126444;28;19951;-57
2022/03/18 02:56:28;;;;;;;;;;;;;;;17.55;41.63;103957.38;5127453;28;19908;-59
2022/03/18 02:58:53;;;;;;;;;;;;;;;17.53;41.53;103953.88;5128013;28;19912;-59
2022/03/18 03:01:18;;;;;;;;;;;;;;;17.52;41.48;103963.78;5127413;28;20014;-59
2022/03/18 03:03:43;;;;;;;;;;;;;;;17.52;41.70;103969.16;5127590;28;19916;-58
2022/03/18 03:08:52;;;;;;;;;;;;;;;17.50;41.67;103973.78;5127581;28;19914;-59
2022/03/18 03:11:17;;;;;;;;;;;;;;;17.49;41.51;103963.94;5125428;28;20010;-59
2022/03/18 03:13:43;;;;;;;;;;;;;;;17.48;41.48;103968.47;5127616;28;19937;-59
2022/03/18 03:16:08;;;;;;;;;;;;;;;17.47;41.42;103977.50;5127418;28;20287;-59
2022/03/18 03:18:33;;;;;;;;;;;;;;;17.46;41.39;103985.66;5127552;28;19911;-59
2022/03/18 03:20:59;;;;;;;;;;;;;;;17.45;41.44;103976.69;5127598;28;19907;-59
2022/03/18 03:23:25;;;;;;;;;;;;;;;17.45;41.62;103982.06;5127143;27;19923;-58
2022/03/18 03:25:51;;;;;;;;;;;;;;;17.44;41.51;103982.16;5126637;28;19912;-58
2022/03/18 03:28:17;;;;;;;;;;;;;;;17.43;41.47;103989.38;5127251;28;20434;-59
2022/03/18 03:30:42;;;;;;;;;;;;;;;17.41;41.46;103985.88;5127171;28;19912;-59
2022/03/18 03:33:08;;;;;;;;;;;;;;;17.42;41.43;103992.16;5127519;27;19922;-58
2022/03/18 03:35:33;;;;;;;;;;;;;;;17.39;41.36;103985.09;5127127;28;19955;-59
2022/03/18 03:37:58;;;;;;;;;;;;;;;17.40;41.53;103997.59;5127163;28;19908;-59
2022/03/18 03:40:24;;;;;;;;;;;;;;;17.39;41.31;104005.75;5125078;28;19933;-58
2022/03/18 03:42:49;;;;;;;;;;;;;;;17.38;41.32;104009.41;5126829;28;19908;-59
2022/03/18 03:45:14;;;;;;;;;;;;;;;17.36;41.65;104014.84;5126716;27;20406;-58
2022/03/18 03:47:40;;;;;;;;;;;;;;;17.36;41.58;104014.84;5126964;28;19929;-59
2022/03/18 03:50:06;;;;;;;;;;;;;;;17.35;41.52;104021.19;5118137;28;19939;-59
2022/03/18 03:52:32;;;;;;;;;;;;;;;17.35;41.35;104028.38;5126651;28;19943;-59
2022/03/18 03:54:57;;;;;;;;;;;;;;;17.34;41.54;104023.97;5126402;28;19913;-59
2022/03/18 03:57:22;;;;;;;;;;;;;;;17.33;41.27;104023.09;5125218;28;19908;-59
2022/03/18 03:59:47;;;;;;;;;;;;;;;17.32;41.48;104024.03;5126733;28;19918;-59
2022/03/18 04:02:12;;;;;;;;;;;;;;;17.31;41.41;104030.38;5126593;28;19955;-59
2022/03/18 04:04:37;;;;;;;;;;;;;;;17.31;41.47;104026.81;5126382;28;20419;-58
2022/03/18 04:07:03;;;;;;;;;;;;;;;17.30;41.26;104033.16;5125396;28;19918;-59
2022/03/18 04:09:28;;;;;;;;;;;;;;;17.30;41.49;104030.47;5126006;28;19908;-59
2022/03/18 04:11:53;;;;;;;;;;;;;;;17.28;41.49;104025.16;5124792;28;19962;-58
2022/03/18 04:14:18;;;;;;;;;;;;;;;17.28;41.27;104030.53;5126640;28;19979;-59
2022/03/18 04:16:44;;;;;;;;;;;;;;;17.26;41.43;104021.69;5126170;28;19915;-59
2022/03/18 04:19:10;;;;;;;;;;;;;;;17.27;41.46;104036.00;5126669;28;19908;-58
2022/03/18 04:21:35;;;;;;;;;;;;;;;17.26;41.38;104028.88;5126204;28;19907;-58
2022/03/18 04:24:00;;;;;;;;;;;;;;;17.25;41.38;104038.78;5124793;28;19915;-59
2022/03/18 04:26:25;;;;;;;;;;;;;;;17.24;41.28;104037.03;5125270;28;20304;-59
2022/03/18 04:28:50;;;;;;;;;;;;;;;17.23;41.46;104037.97;5126448;28;19907;-59
2022/03/18 04:31:16;;;;;;;;;;;;;;;17.22;41.36;104034.41;5126067;28;19914;-59
2022/03/18 04:33:41;;;;;;;;;;;;;;;17.22;41.24;104044.31;5126202;28;19964;-59
2022/03/18 04:36:07;;;;;;;;;;;;;;;17.20;41.26;104033.66;5124641;28;20528;-59
2022/03/18 04:38:32;;;;;;;;;;;;;;;17.20;41.26;104041.72;5125798;28;19908;-59
2022/03/18 04:40:57;;;;;;;;;;;;;;;17.19;41.27;104039.94;5125412;28;19939;-58
2022/03/18 04:43:23;;;;;;;;;;;;;;;17.19;41.20;104044.47;5125465;28;19907;-59
2022/03/18 04:45:48;;;;;;;;;;;;;;;17.17;41.33;104041.88;5117936;28;19912;-59
2022/03/18 04:48:13;;;;;;;;;;;;;;;17.17;41.35;104049.06;5105525;28;19934;-59
2022/03/18 04:50:38;;;;;;;;;;;;;;;17.16;41.52;104050.00;5112148;28;20479;-59
2022/03/18 04:53:03;;;;;;;;;;;;;;;17.15;41.54;104059.88;5125770;27;19915;-59
2022/03/18 04:55:28;;;;;;;;;;;;;;;17.14;41.29;104059.97;5124950;28;19912;-59
2022/03/18 04:57:54;;;;;;;;;;;;;;;17.12;41.48;104065.44;5125410;28;19911;-59
2022/03/18 05:00:20;;;;;;;;;;;;;;;17.12;41.31;104062.75;5125595;28;20518;-59
2022/03/18 05:02:45;;;;;;;;;;;;;;;17.12;41.31;104069.94;5125551;27;19907;-59
2022/03/18 05:05:10;;;;;;;;;;;;;;;17.10;41.33;104070.00;5125261;28;19984;-59
2022/03/18 05:07:38;;;;;;;;;;;;;;;17.10;41.31;104075.41;5125385;28;19908;-59
2022/03/18 05:10:04;;;;;;;;;;;;;;;17.09;41.38;104081.72;5124725;28;19911;-59
2022/03/18 05:12:31;;;;;;;;;;;;;;;17.09;41.32;104086.25;5124801;28;19929;-59
2022/03/18 05:14:56;;;;;;;;;;;;;;;17.07;41.40;104094.38;5125487;28;19908;-59
2022/03/18 05:17:21;;;;;;;;;;;;;;;17.06;41.51;104087.25;5125159;28;19908;-59
2022/03/18 05:19:46;;;;;;;;;;;;;;;17.06;41.47;104094.44;5124957;28;19914;-59
2022/03/18 05:22:12;;;;;;;;;;;;;;;17.06;41.34;104089.06;5114642;28;19966;-59
2022/03/18 05:24:37;;;;;;;;;;;;;;;17.04;41.42;104099.91;5103918;28;19912;-59
2022/03/18 05:27:03;;;;;;;;;;;;;;;17.04;41.30;104104.44;5104051;28;20066;-59
2022/03/18 05:29:29;;;;;;;;;;;;;;;17.03;41.55;104103.53;5104957;28;19909;-59
2022/03/18 05:31:54;;;;;;;;;;;;;;;17.03;41.41;104102.66;5103251;28;19965;-59
2022/03/18 05:34:20;;;;;;;;;;;;;;;17.02;41.65;104099.13;5123041;28;19911;-59
2022/03/18 05:36:45;;;;;;;;;;;;;;;17.02;41.66;104098.25;5110448;28;19915;-59
2022/03/18 05:39:11;;;;;;;;;;;;;;;17.01;41.75;104099.19;5123671;28;19908;-59
2022/03/18 05:41:37;;;;;;;;;;;;;;;16.98;41.69;104098.41;5121178;28;20364;-59
2022/03/18 05:44:02;;;;;;;;;;;;;;;16.97;41.98;104099.34;5124395;28;19922;-59
2022/03/18 05:46:28;;;;;;;;;;;;;;;16.97;41.89;104115.47;5123933;28;19908;-59
2022/03/18 05:48:53;;;;;;;;;;;;;;;16.96;41.80;104119.13;5109481;27;19912;-58
2022/03/18 05:51:18;;;;;;;;;;;;;;;16.97;41.90;104120.84;5114017;28;19931;-59
2022/03/18 05:53:43;;;;;;;;;;;;;;;16.97;41.90;104125.38;5112852;28;20439;-57
2022/03/18 05:58:52;;;;;;;;;;;;;;;16.96;42.06;104132.56;5107903;28;20045;-59
2022/03/18 06:01:17;;;;;;;;;;;;;;;16.95;42.03;104136.19;5123409;27;19916;-59
2022/03/18 06:03:42;;;;;;;;;;;;;;;16.95;42.10;104132.66;5118080;28;19926;-59
2022/03/18 06:06:08;;;;;;;;;;;;;;;16.95;42.08;104141.59;5105629;28;19908;-59
2022/03/18 06:14:01;;;;;;;;;;;;;;;16.93;42.30;104140.78;5116409;28;19939;-58
2022/03/18 06:16:26;;;;;;;;;;;;;;;16.93;42.13;104140.78;5111004;28;20478;-58
2022/03/18 06:18:51;;;;;;;;;;;;;;;16.93;42.27;104138.09;5104199;28;19920;-58
2022/03/18 06:21:16;;;;;;;;;;;;;;;16.92;42.24;104139.03;5109014;28;19958;-58
2022/03/18 06:23:42;;;;;;;;;;;;;;;16.92;42.27;104155.16;5107722;28;19920;-59
2022/03/18 06:26:07;;;;;;;;;;;;;;;16.92;42.19;104154.28;5107342;28;19964;-59
2022/03/18 06:28:33;;;;;;;;;;;;;;;16.91;42.22;104161.50;5107614;28;19907;-59
2022/03/18 06:30:58;;;;;;;;;;;;;;;16.91;42.19;104164.19;5107585;28;19910;-59
2022/03/18 06:33:23;;;;;;;;;;;;;;;16.91;42.19;104166.88;5126788;28;19918;-57
2022/03/18 06:35:48;;;;;;;;;;;;;;;16.91;42.31;104158.81;5107917;28;19943;-59
2022/03/18 06:38:13;;;;;;;;;;;;;;;16.91;42.25;104157.94;5112086;28;19934;-58
2022/03/18 06:40:39;;;;;;;;;;;;;;;16.91;42.22;104168.69;5107149;28;19908;-59
2022/03/18 06:43:04;;;;;;;;;;;;;;;16.90;42.32;104173.16;5120109;28;20352;-59
2022/03/18 06:45:29;;;;;;;;;;;;;;;16.91;42.22;104179.44;5127524;28;20572;-59
2022/03/18 06:47:54;;;;;;;;;;;;;;;16.89;42.28;104176.81;5107651;28;19912;-59
2022/03/18 06:50:22;;;;;;;;;;;;;;;16.91;42.33;104182.13;5111256;28;19929;-59
2022/03/18 06:52:47;;;;;;;;;;;;;;;16.91;42.31;104179.44;5127430;28;19914;-60
2022/03/18 06:55:12;;;;;;;;;;;;;;;16.90;42.20;104186.59;5126834;28;19912;-59
2022/03/18 06:57:38;;;;;;;;;;;;;;;16.90;42.13;104193.81;5120740;28;19916;-59
2022/03/18 07:00:03;;;;;;;;;;;;;;;16.88;42.23;104195.72;5107316;28;19912;-59
2022/03/18 07:02:28;;;;;;;;;;;;;;;16.85;42.24;104193.16;5107007;28;19908;-59
2022/03/18 07:04:55;;;;;;;;;;;;;;;16.83;42.27;104198.63;5106916;28;19915;-59
2022/03/18 07:07:20;;;;;;;;;;;;;;;16.80;42.32;104197.91;5107128;28;20498;-59
2022/03/18 07:09:45;;;;;;;;;;;;;;;16.78;42.39;104199.78;5106316;28;19980;-59
2022/03/18 07:12:10;;;;;;;;;;;;;;;16.76;42.36;104212.44;5120314;28;19908;-60
2022/03/18 07:14:36;;;;;;;;;;;;;;;16.74;42.29;104215.19;5126586;28;19955;-60
2022/03/18 07:19:45;;;;;;;;;;;;;;;16.71;42.38;104234.97;5125164;28;19918;-60
2022/03/18 07:22:10;;;;;;;;;;;;;;;16.72;42.28;104235.84;5113264;28;19912;-59
2022/03/18 07:24:35;;;;;;;;;;;;;;;16.70;42.27;104238.63;5106009;28;19919;-59
2022/03/18 07:27:01;;;;;;;;;;;;;;;16.70;42.25;104235.06;5106338;28;19959;-60
2022/03/18 07:29:26;;;;;;;;;;;;;;;16.71;42.21;104244.88;5106893;28;20416;-60
2022/03/18 07:31:54;;;;;;;;;;;;;;;16.70;42.18;104244.00;5106213;28;19912;-59
2022/03/18 07:34:21;;;;;;;;;;;;;;;16.69;42.32;104241.34;5124302;28;19908;-59
2022/03/18 07:36:46;;;;;;;;;;;;;;;16.69;42.30;104236.88;5126367;28;20371;-60
2022/03/18 07:39:12;;;;;;;;;;;;;;;16.71;42.23;104242.19;5125902;28;19931;-59
2022/03/18 07:41:37;;;;;;;;;;;;;;;16.70;42.31;104244.00;5126099;28;19914;-58
2022/03/18 07:44:02;;;;;;;;;;;;;;;16.70;42.37;104243.13;5126481;28;20446;-59
2022/03/18 07:46:27;;;;;;;;;;;;;;;16.70;42.12;104246.69;5125498;28;19912;-59
2022/03/18 07:48:52;;;;;;;;;;;;;;;16.72;42.02;104244.81;5120538;28;19927;-59
2022/03/18 07:51:18;;;;;;;;;;;;;;;16.73;41.90;104256.44;5123267;28;19907;-59
2022/03/18 07:53:43;;;;;;;;;;;;;;;16.76;42.01;104244.66;5126021;28;19915;-59
2022/03/18 07:56:08;;;;;;;;;;;;;;;16.78;41.98;104262.47;5112781;28;19912;-59
2022/03/18 07:58:33;;;;;;;;;;;;;;;16.79;41.98;104258.84;5106136;28;19961;-60
2022/03/18 08:00:58;;;;;;;;;;;;;;;16.82;41.91;104263.19;5106024;28;19943;-58
2022/03/18 08:03:23;;;;;;;;;;;;;;;16.83;41.76;104259.56;5106020;28;19911;-59
2022/03/18 08:05:49;;;;;;;;;;;;;;;16.86;41.81;104259.41;5106234;28;20361;-59
2022/03/18 08:08:14;;;;;;;;;;;;;;;16.86;41.63;104268.34;5105796;28;19908;-60
2022/03/18 08:10:39;;;;;;;;;;;;;;;16.88;41.71;104273.66;5124081;28;19918;-60
2022/03/18 08:13:04;;;;;;;;;;;;;;;16.90;41.56;104271.75;5126045;28;19915;-60
2022/03/18 08:15:29;;;;;;;;;;;;;;;16.92;41.74;104272.56;5126027;28;19915;-60
2022/03/18 08:17:55;;;;;;;;;;;;;;;16.93;41.61;104283.22;5125018;28;19907;-59
2022/03/18 08:20:20;;;;;;;;;;;;;;;16.96;41.65;104293.84;5125309;28;20421;-60
2022/03/18 08:22:46;;;;;;;;;;;;;;;16.99;41.50;104295.50;5120744;28;19923;-59
2022/03/18 08:25:11;;;;;;;;;;;;;;;17.02;41.48;104295.34;5103830;28;19916;-59
2022/03/18 08:27:37;;;;;;;;;;;;;;;17.06;41.38;104299.63;5104975;28;20384;-60
2022/03/18 08:30:03;;;;;;;;;;;;;;;17.11;41.43;104307.47;5105634;28;19919;-59
2022/03/18 08:32:29;;;;;;;;;;;;;;;17.16;41.26;104308.13;5105468;28;19998;-60
2022/03/18 08:34:57;;;;;;;;;;;;;;;17.20;41.27;104316.00;5122244;28;19914;-60
2022/03/18 08:40:06;;;;;;;;;;;;;;;17.27;41.29;104326.44;5123258;28;19954;-57
2022/03/18 08:42:31;;;;;;;;;;;;;;;17.26;41.48;104333.63;5124628;28;19907;-57
2022/03/18 08:44:56;;;;;;;;;;;;;;;17.27;41.36;104327.31;5123674;28;19911;-57
2022/03/18 08:47:23;;;;;;;;;;;;;;;17.27;41.53;104331.81;5124812;28;19915;-56
2022/03/18 08:49:48;;;;;;;;;;;;;;;17.28;41.37;104328.16;5124843;28;19907;-57
2022/03/18 08:52:14;;;;;;;;;;;;;;;17.29;41.60;104332.59;5122241;28;19923;-57
2022/03/18 08:54:39;;;;;;;;;;;;;;;17.29;41.69;104330.81;5124131;28;19974;-57
2022/03/18 08:57:04;;;;;;;;;;;;;;;17.30;41.48;104346.00;5124537;28;19908;-57
2022/03/18 08:59:29;;;;;;;;;;;;;;;17.32;41.69;104344.09;5125014;28;19963;-57
2022/03/18 09:01:54;;;;;;;;;;;;;;;17.32;41.47;104352.16;5124579;28;19914;-57
2022/03/18 09:04:20;;;;;;;;;;;;;;;17.33;41.60;104356.59;5118109;28;19912;-56
2022/03/18 09:06:46;;;;;;;;;;;;;;;17.36;41.59;104366.31;5106159;28;19915;-58
2022/03/18 09:09:11;;;;;;;;;;;;;;;17.37;41.50;104368.06;5124168;28;19919;-57
2022/03/18 09:11:37;;;;;;;;;;;;;;;17.38;41.74;104361.75;5124367;28;19908;-54
2022/03/18 09:14:02;;;;;;;;;;;;;;;17.38;41.56;104362.63;5124358;28;19915;-55
2022/03/18 09:16:27;;;;;;;;;;;;;;;17.40;41.68;104371.47;5124272;28;19912;-55
2022/03/18 09:18:52;;;;;;;;;;;;;;;17.42;41.68;104366.06;5117260;28;19907;-57
2022/03/18 09:21:17;;;;;;;;;;;;;;;17.43;41.53;104370.47;5124799;28;20013;-57
2022/03/18 09:23:42;;;;;;;;;;;;;;;17.43;41.73;104375.84;5124254;28;19920;-56
2022/03/18 09:26:08;;;;;;;;;;;;;;;17.44;41.70;104383.84;5122990;28;19919;-57
2022/03/18 09:28:33;;;;;;;;;;;;;;;17.44;41.60;104386.53;5124719;28;19918;-54
2022/03/18 09:30:58;;;;;;;;;;;;;;;17.45;41.53;104385.56;5124725;28;19939;-55
2022/03/18 09:33:23;;;;;;;;;;;;;;;17.47;41.68;104393.59;5124759;28;19987;-55
2022/03/18 09:35:48;;;;;;;;;;;;;;;17.47;41.65;104386.38;5124185;28;19907;-56
2022/03/18 09:38:14;;;;;;;;;;;;;;;17.47;41.57;104391.78;5124388;28;20500;-57
2022/03/18 09:40:40;;;;;;;;;;;;;;;17.48;41.67;104396.19;5123863;28;19908;-59
2022/03/18 09:43:06;;;;;;;;;;;;;;;17.48;41.87;104398.88;5124504;28;19959;-61
2022/03/18 09:45:32;;;;;;;;;;;;;;;17.48;41.82;104401.56;5124122;28;19912;-59
2022/03/18 09:47:58;;;;;;;;;;;;;;;17.49;41.87;104394.38;5124871;27;19912;-53
2022/03/18 09:50:23;;;;;;;;;;;;;;;17.52;41.84;104404.13;5124112;28;19914;-58
2022/03/18 09:52:49;;;;;;;;;;;;;;;17.51;42.08;104405.94;5123341;28;19915;-59
2022/03/18 09:55:14;;;;;;;;;;;;;;;17.53;42.04;104404.03;5122953;28;19911;-56
2022/03/18 09:57:39;;;;;;;;;;;;;;;17.54;42.12;104412.97;5124287;28;19908;-57
2022/03/18 10:00:04;;;;;;;;;;;;;;;17.56;42.37;104408.41;5124820;28;19912;-57
2022/03/18 10:02:30;;;;;;;;;;;;;;;17.56;42.46;104411.97;5122804;28;19918;-58
2022/03/18 10:04:59;;;;;;;;;;;;;;;17.55;42.58;104410.25;5124292;28;19908;-56
2022/03/18 10:07:25;;;;;;;;;;;;;;;17.54;42.74;104408.47;5124447;28;20380;-59
2022/03/18 10:10:01;;;;;;;;;;;;;;;17.54;42.71;104412.97;5123419;28;19915;-61
2022/03/18 10:12:29;;;;;;;;;;;;;;;17.53;42.83;104414.81;5119882;28;19918;-59
2022/03/18 10:15:03;;;;;;;;;;;;;;;17.53;42.98;104404.03;5123403;28;19918;-60
2022/03/18 10:17:37;;;;;;;;;;;;;;;17.54;42.96;104415.69;5121798;28;19954;-60
2022/03/18 10:20:03;;;;;;;;;;;;;;;17.54;42.94;104421.91;5102700;28;19919;-61
2022/03/18 10:22:28;;;;;;;;;;;;;;;17.57;43.02;104418.22;5113513;28;19919;-58
2022/03/18 10:24:53;;;;;;;;;;;;;;;17.55;43.11;104418.31;5117158;28;20363;-56
2022/03/18 10:27:23;;;;;;;;;;;;;;;17.56;43.05;104419.19;5105670;28;19920;-60
2022/03/18 10:29:49;;;;;;;;;;;;;;;17.57;42.96;104420.91;5108316;28;19941;-59
2022/03/18 10:32:15;;;;;;;;;;;;;;;17.59;42.81;104424.41;5110072;28;19919;-63
2022/03/18 10:37:47;;;;;;;;;;;;;;;17.59;42.93;104416.34;5113334;28;19986;-62
2022/03/18 10:40:13;;;;;;;;;;;;;;;17.60;42.94;104418.94;5114658;28;19921;-61
2022/03/18 10:42:38;;;;;;;;;;;;;;;17.60;42.90;104410.88;5120799;28;19978;-60
2022/03/18 10:45:04;;;;;;;;;;;;;;;17.61;42.93;104419.81;5116084;28;19924;-62
2022/03/18 10:47:29;;;;;;;;;;;;;;;17.63;42.86;104426.88;5108375;28;19908;-61
2022/03/18 10:50:00;;;;;;;;;;;;;;;17.65;42.75;104419.59;5111560;28;19907;-61
2022/03/18 10:52:28;;;;;;;;;;;;;;;17.65;42.99;104430.34;5117251;28;19908;-64
2022/03/18 10:54:54;;;;;;;;;;;;;;;17.69;42.76;104431.09;5110156;28;19946;-61
2022/03/18 10:57:19;;;;;;;;;;;;;;;17.69;43.02;104421.19;5114912;28;20368;-61
2022/03/18 10:59:44;;;;;;;;;;;;;;;17.71;43.04;104421.09;5112928;28;20348;-61
2022/03/18 11:02:10;;;;;;;;;;;;;;;17.70;43.16;104422.94;5114422;28;19912;-61
2022/03/18 11:04:35;;;;;;;;;;;;;;;17.72;43.17;104417.50;5116074;28;19948;-61
2022/03/18 11:12:28;;;;;;;;;;;;;;;17.77;43.06;104417.28;5119465;28;20165;-60
2022/03/18 11:14:54;;;;;;;;;;;;;;;17.78;43.27;104421.72;5117087;28;20565;-63
2022/03/18 11:17:21;;;;;;;;;;;;;;;17.79;43.42;104420.75;5118305;28;19943;-60
2022/03/18 11:19:46;;;;;;;;;;;;;;;17.80;43.31;104422.50;5113999;28;19931;-60
2022/03/18 11:22:13;;;;;;;;;;;;;;;17.80;43.43;104417.13;5120588;28;19980;-60
2022/03/18 11:24:38;;;;;;;;;;;;;;;17.81;43.17;104408.97;5121665;28;19912;-60
2022/03/18 11:27:04;;;;;;;;;;;;;;;17.81;43.43;104403.59;5116942;28;19912;-60
2022/03/18 11:29:31;;;;;;;;;;;;;;;17.82;43.38;104423.31;5116148;28;19939;-60
2022/03/18 11:32:16;;;;;;;;;;;;;;;17.83;43.28;104411.59;5116879;28;20005;-59
2022/03/18 11:34:50;;;;;;;;;;;;;;;17.84;43.49;104410.63;5119149;28;19915;-60
2022/03/18 11:37:15;;;;;;;;;;;;;;;17.85;43.43;104412.41;5111709;28;19918;-59
2022/03/18 11:39:40;;;;;;;;;;;;;;;17.85;43.47;104405.19;5123763;28;19908;-59
2022/03/18 11:42:09;;;;;;;;;;;;;;;17.87;43.40;104408.66;5123958;28;19912;-59
2022/03/18 11:44:44;;;;;;;;;;;;;;;17.89;43.25;104414.00;5117877;28;19922;-60
2022/03/18 11:47:18;;;;;;;;;;;;;;;17.90;43.32;104413.03;5116602;28;20280;-63
2022/03/18 11:49:43;;;;;;;;;;;;;;;17.92;43.36;104417.38;5126231;28;19942;-60
2022/03/18 11:52:08;;;;;;;;;;;;;;;17.93;43.22;104412.91;5126691;28;19908;-60
2022/03/18 11:54:38;;;;;;;;;;;;;;;17.94;43.43;104411.94;5126230;28;19918;-60
2022/03/18 11:57:05;;;;;;;;;;;;;;;17.96;43.32;104410.88;5124451;28;19915;-59
2022/03/18 11:59:38;;;;;;;;;;;;;;;17.96;43.48;104408.19;5126930;28;19911;-61
2022/03/18 12:02:07;;;;;;;;;;;;;;;17.97;43.42;104412.66;5125670;28;19908;-61
2022/03/18 12:04:33;;;;;;;;;;;;;;;17.99;43.42;104407.19;5126127;28;19976;-57
2022/03/18 12:07:11;;;;;;;;;;;;;;;18.00;43.37;104414.31;5106052;28;19950;-59
2022/03/18 12:09:49;;;;;;;;;;;;;;;17.99;43.46;104408.06;5111289;28;20116;-59
2022/03/18 12:12:14;;;;;;;;;;;;;;;18.01;43.39;104399.91;5125195;28;19967;-59
2022/03/18 12:14:40;;;;;;;;;;;;;;;18.03;43.39;104405.22;5126118;28;19929;-60
2022/03/18 12:17:05;;;;;;;;;;;;;;;18.03;43.55;104407.91;5125855;28;19912;-60
2022/03/18 12:19:30;;;;;;;;;;;;;;;18.03;43.38;104403.38;5123951;28;19961;-62
2022/03/18 12:21:55;;;;;;;;;;;;;;;18.04;43.26;104402.44;5126117;28;19916;-60
2022/03/18 12:24:20;;;;;;;;;;;;;;;18.06;43.53;104414.00;5124022;28;19934;-61
2022/03/18 12:26:46;;;;;;;;;;;;;;;18.06;43.37;104408.63;5124098;28;19907;-59
2022/03/18 12:29:17;;;;;;;;;;;;;;;18.07;43.49;104402.28;5126157;28;19912;-60
2022/03/18 12:31:42;;;;;;;;;;;;;;;18.08;43.35;104401.31;5114067;28;19933;-59
2022/03/18 12:34:09;;;;;;;;;;;;;;;18.08;43.62;104398.63;5103539;28;20002;-59
2022/03/18 12:36:34;;;;;;;;;;;;;;;18.10;43.59;104398.56;5105274;28;19908;-60
2022/03/18 12:39:09;;;;;;;;;;;;;;;18.11;43.55;104393.09;5103898;28;19966;-60
2022/03/18 12:41:34;;;;;;;;;;;;;;;18.14;43.50;104397.47;5105283;28;19983;-60
2022/03/18 12:44:00;;;;;;;;;;;;;;;18.14;43.72;104394.78;5122936;28;19912;-59
2022/03/18 12:46:25;;;;;;;;;;;;;;;18.16;43.54;104390.16;5115091;28;19946;-60
2022/03/18 12:48:50;;;;;;;;;;;;;;;18.18;43.48;104388.25;5115159;28;19967;-61
2022/03/18 12:51:16;;;;;;;;;;;;;;;18.20;43.60;104389.06;5125334;28;19911;-60
2022/03/18 12:53:44;;;;;;;;;;;;;;;18.22;43.77;104377.28;5125376;28;19975;-60
2022/03/18 12:56:13;;;;;;;;;;;;;;;18.25;43.75;104378.91;5125014;28;19911;-60
2022/03/18 12:58:39;;;;;;;;;;;;;;;18.28;43.60;104381.47;5123861;28;19950;-60